Time;durP1;ratioP1;P1;durP2;ratioP2;P2;SDS_P1;SDS_P2;PMS_P1;PMS_P2;Temp;Humidity;BMP_temperature;BMP_pressure;BME280_temperature;BME280_humidity;BME280_pressure;Samples;Min_cycle;Max_cycle;Signal;HPM_P1;HPM_P2
2022/01/20 00:03:31;;;;;;;26.13;3.00;;;3.60;99.90;;;;;;4831514;29;20064;-79
2022/01/20 00:28:11;;;;;;;22.05;3.13;;;3.80;99.90;;;;;;4837987;29;20619;-79
2022/01/20 00:30:54;;;;;;;29.33;3.77;;;3.80;99.90;;;;;;4846763;29;20350;-79
2022/01/20 00:33:45;;;;;;;29.65;3.70;;;3.80;99.90;;;;;;4836502;29;20037;-79
2022/01/20 00:38:39;;;;;;;25.73;2.55;;;3.90;99.90;;;;;;4847050;29;20509;-79
2022/01/20 00:41:19;;;;;;;29.38;2.15;;;4.00;99.90;;;;;;4851680;29;20149;-80
2022/01/20 00:43:48;;;;;;;26.02;3.05;;;4.00;99.90;;;;;;4853390;29;20037;-79
2022/01/20 00:46:17;;;;;;;26.37;2.13;;;4.10;99.90;;;;;;4855829;29;20060;-78
2022/01/20 00:48:43;;;;;;;14.15;1.50;;;4.10;99.90;;;;;;4856032;29;20049;-79
2022/01/20 00:51:13;;;;;;;18.13;1.60;;;4.10;99.90;;;;;;4848908;29;20038;-79
2022/01/20 00:53:44;;;;;;;30.30;3.28;;;4.00;99.90;;;;;;4835524;29;20042;-79
2022/01/20 00:56:12;;;;;;;15.68;1.63;;;3.90;99.90;;;;;;4833987;29;20037;-78
2022/01/20 00:58:39;;;;;;;19.33;2.30;;;4.00;99.90;;;;;;4845669;29;20033;-78
2022/01/20 01:01:12;;;;;;;14.05;1.55;;;4.00;99.90;;;;;;4848742;29;20049;-78
2022/01/20 01:03:39;;;;;;;17.75;1.83;;;4.00;99.90;;;;;;4831880;29;20038;-78
2022/01/20 01:08:51;;;;;;;21.70;2.08;;;3.90;99.90;;;;;;4845434;29;20042;-79
2022/01/20 01:11:20;;;;;;;12.90;1.88;;;3.90;99.90;;;;;;4845496;29;20065;-78
2022/01/20 01:13:50;;;;;;;15.75;1.20;;;3.90;99.90;;;;;;4845088;29;20046;-79
2022/01/20 01:16:25;;;;;;;20.55;1.55;;;3.80;99.90;;;;;;4825808;29;20054;-78
2022/01/20 01:21:46;;;;;;;17.42;1.13;;;3.70;99.90;;;;;;4841949;29;20046;-79
2022/01/20 01:24:16;;;;;;;20.30;1.95;;;3.60;99.90;;;;;;4844098;29;20044;-78
2022/01/20 01:26:42;;;;;;;14.00;1.25;;;3.60;99.90;;;;;;4831251;29;20038;-78
2022/01/20 01:29:33;;;;;;;14.75;1.70;;;3.70;99.90;;;;;;4828908;29;20042;-78
2022/01/20 01:31:59;;;;;;;19.80;1.93;;;3.70;99.90;;;;;;4847105;29;20045;-78
2022/01/20 01:34:29;;;;;;;12.77;1.77;;;3.70;99.90;;;;;;4852486;29;20030;-79
2022/01/20 01:39:27;;;;;;;19.00;1.58;;;3.70;99.90;;;;;;4848461;29;20038;-78
2022/01/20 01:41:56;;;;;;;15.95;1.60;;;3.80;99.90;;;;;;4831460;29;20370;-78
2022/01/20 01:44:30;;;;;;;15.23;1.42;;;3.80;99.90;;;;;;4851407;29;20050;-79
2022/01/20 01:47:01;;;;;;;16.83;1.90;;;3.80;99.90;;;;;;4831807;29;20038;-79
2022/01/20 01:49:29;;;;;;;26.50;2.15;;;3.90;99.90;;;;;;4848246;29;20045;-79
2022/01/20 01:51:55;;;;;;;13.82;1.25;;;3.90;99.90;;;;;;4852777;29;20060;-79
2022/01/20 01:54:22;;;;;;;23.00;2.10;;;3.90;99.90;;;;;;4858211;29;20371;-79
2022/01/20 01:56:49;;;;;;;16.35;1.30;;;4.00;99.90;;;;;;4840019;29;20049;-79
2022/01/20 01:59:21;;;;;;;17.08;1.48;;;4.00;99.90;;;;;;4850280;29;20037;-79
2022/01/20 02:01:54;;;;;;;14.63;1.20;;;4.00;99.90;;;;;;4833997;29;20038;-79
2022/01/20 02:04:22;;;;;;;27.90;2.42;;;4.10;99.90;;;;;;4831824;29;20389;-79
2022/01/20 02:18:36;;;;;;;13.88;1.00;;;4.30;99.90;;;;;;4850710;29;20034;-79
2022/01/20 02:20:57;;;;;;;18.92;2.05;;;4.30;99.90;;;;;;4833753;29;20493;-79
2022/01/20 02:23:26;;;;;;;15.23;1.30;;;4.30;99.90;;;;;;4833763;29;20042;-78
2022/01/20 02:25:52;;;;;;;19.80;2.10;;;4.30;99.90;;;;;;4838830;29;20042;-79
2022/01/20 02:28:45;;;;;;;13.23;1.85;;;4.20;99.90;;;;;;4849868;29;20058;-79
2022/01/20 02:31:18;;;;;;;11.82;1.23;;;4.20;99.90;;;;;;4848913;29;20057;-79
2022/01/20 02:36:51;;;;;;;19.75;1.88;;;4.10;99.90;;;;;;4828077;29;20064;-79
2022/01/20 02:48:04;;;;;;;20.90;2.28;;;4.00;99.90;;;;;;4816171;29;20050;-79
2022/01/20 02:50:36;;;;;;;19.80;1.90;;;4.10;99.90;;;;;;4812867;29;20077;-79
2022/01/20 02:53:15;;;;;;;22.60;1.97;;;4.10;99.90;;;;;;4782950;29;20098;-79
2022/01/20 02:55:46;;;;;;;18.83;2.00;;;4.20;99.90;;;;;;4798713;29;20055;-79
2022/01/20 02:58:17;;;;;;;19.95;2.25;;;4.20;99.90;;;;;;4805023;29;20401;-79
2022/01/20 03:00:52;;;;;;;20.00;1.67;;;4.10;99.90;;;;;;4840132;29;20033;-79
2022/01/20 03:03:21;;;;;;;19.77;1.15;;;4.10;99.90;;;;;;4848506;29;20030;-78
2022/01/20 03:05:55;;;;;;;14.80;1.23;;;4.10;99.90;;;;;;4850765;29;20497;-79
2022/01/20 03:08:49;;;;;;;17.30;2.30;;;4.10;99.90;;;;;;4835414;29;20061;-79
2022/01/20 03:11:16;;;;;;;18.55;1.88;;;4.20;99.90;;;;;;4816525;29;20072;-79
2022/01/20 03:14:03;;;;;;;14.48;2.00;;;4.20;99.90;;;;;;4832826;29;20044;-79
2022/01/20 03:16:39;;;;;;;19.35;1.98;;;4.30;99.90;;;;;;4833841;29;20358;-79
2022/01/20 03:19:09;;;;;;;19.80;1.10;;;4.40;99.90;;;;;;4832702;29;20502;-79
2022/01/20 03:21:46;;;;;;;17.02;1.35;;;4.40;99.90;;;;;;4850712;29;20041;-79
2022/01/20 03:24:15;;;;;;;21.50;1.83;;;4.40;99.90;;;;;;4842907;29;20054;-79
2022/01/20 03:27:10;;;;;;;20.73;1.80;;;4.50;99.90;;;;;;4838150;29;20041;-79
2022/01/20 03:29:41;;;;;;;21.70;1.42;;;4.50;99.90;;;;;;4848134;29;20057;-79
2022/01/20 03:32:08;;;;;;;14.57;1.88;;;4.50;99.90;;;;;;4850847;29;20049;-79
2022/01/20 03:34:43;;;;;;;13.73;1.67;;;4.50;99.90;;;;;;4850159;29;20053;-79
2022/01/20 03:37:50;;;;;;;22.25;2.50;;;4.50;99.90;;;;;;4848866;29;20060;-79
2022/01/20 03:40:17;;;;;;;16.40;2.58;;;4.60;99.90;;;;;;4832935;29;20030;-79
2022/01/20 03:42:50;;;;;;;17.05;1.65;;;4.60;99.90;;;;;;4833401;29;20409;-80
2022/01/20 03:45:25;;;;;;;18.70;1.48;;;4.50;99.90;;;;;;4839310;29;20413;-79
2022/01/20 03:48:17;;;;;;;14.98;1.23;;;4.50;99.90;;;;;;4847229;29;20056;-79
2022/01/20 03:51:02;;;;;;;12.27;1.77;;;4.50;99.90;;;;;;4856224;29;20073;-79
2022/01/20 03:53:40;;;;;;;13.25;1.23;;;4.40;99.90;;;;;;4849332;29;20694;-79
2022/01/20 03:56:21;;;;;;;13.32;1.08;;;4.40;99.90;;;;;;4847014;29;20390;-79
2022/01/20 03:59:00;;;;;;;15.07;1.07;;;4.40;99.90;;;;;;4839806;29;20073;-79
2022/01/20 04:01:28;;;;;;;20.70;2.55;;;4.40;99.90;;;;;;4851335;29;20038;-79
2022/01/20 04:04:23;;;;;;;12.73;1.42;;;4.50;99.90;;;;;;4853116;29;20500;-79
2022/01/20 04:07:04;;;;;;;13.80;0.88;;;4.50;99.90;;;;;;4831014;29;20038;-79
2022/01/20 04:09:37;;;;;;;13.95;1.70;;;4.50;99.90;;;;;;4836440;29;20390;-80
2022/01/20 04:12:05;;;;;;;12.98;1.63;;;4.50;99.90;;;;;;4827991;29;20053;-80
2022/01/20 04:14:34;;;;;;;17.50;1.77;;;4.60;99.90;;;;;;4849775;29;20033;-79
2022/01/20 04:17:04;;;;;;;16.20;1.17;;;4.60;99.90;;;;;;4831191;29;20048;-79
2022/01/20 04:19:37;;;;;;;13.32;1.73;;;4.50;99.90;;;;;;4835013;29;20050;-79
2022/01/20 04:22:03;;;;;;;17.00;1.55;;;4.60;99.90;;;;;;4849221;29;20037;-79
2022/01/20 04:24:37;;;;;;;9.25;0.88;;;4.60;99.90;;;;;;4847813;29;20041;-79
2022/01/20 04:27:06;;;;;;;11.57;1.03;;;4.60;99.90;;;;;;4832890;29;20057;-80
2022/01/20 04:29:37;;;;;;;7.65;0.68;;;4.60;99.90;;;;;;4850361;29;20838;-80
2022/01/20 04:32:04;;;;;;;10.82;0.93;;;4.60;99.90;;;;;;4849962;29;20498;-78
2022/01/20 04:34:33;;;;;;;9.07;0.80;;;4.60;99.90;;;;;;4855047;29;20053;-79
2022/01/20 04:37:22;;;;;;;11.60;1.25;;;4.60;99.90;;;;;;4850668;29;20057;-79
2022/01/20 04:40:11;;;;;;;17.75;1.65;;;4.60;99.90;;;;;;4848126;29;20061;-78
2022/01/20 04:42:44;;;;;;;15.85;1.98;;;4.60;99.90;;;;;;4850173;29;20064;-78
2022/01/20 04:45:30;;;;;;;12.60;1.55;;;4.60;99.90;;;;;;4834213;29;20041;-79
2022/01/20 04:59:03;;;;;;;11.20;0.85;;;4.50;99.90;;;;;;4847833;29;20505;-79
2022/01/20 05:01:34;;;;;;;14.83;1.20;;;4.50;99.90;;;;;;4850063;29;20044;-79
2022/01/20 05:04:26;;;;;;;18.10;1.58;;;4.50;99.90;;;;;;4818597;29;20298;-79
2022/01/20 05:07:19;;;;;;;16.95;1.90;;;4.40;99.90;;;;;;4847969;29;20049;-79
2022/01/20 05:09:48;;;;;;;13.60;1.57;;;4.50;99.90;;;;;;4834971;29;20049;-79
2022/01/20 05:12:32;;;;;;;11.48;1.13;;;4.40;99.90;;;;;;4830144;29;20049;-78
2022/01/20 05:15:02;;;;;;;11.20;1.10;;;4.40;99.90;;;;;;4848208;29;20458;-78
2022/01/20 05:17:35;;;;;;;9.15;0.95;;;4.40;99.90;;;;;;4816704;29;20046;-79
2022/01/20 05:20:09;;;;;;;19.02;1.52;;;4.40;99.90;;;;;;4821041;29;20053;-79
2022/01/20 05:22:44;;;;;;;9.10;0.80;;;4.40;99.90;;;;;;4851356;29;20050;-79
2022/01/20 05:25:14;;;;;;;18.42;1.75;;;4.40;99.90;;;;;;4836641;29;20068;-79
2022/01/20 05:27:41;;;;;;;21.13;1.75;;;4.40;99.90;;;;;;4845288;29;20038;-78
2022/01/20 05:30:12;;;;;;;16.45;1.50;;;4.40;99.90;;;;;;4849868;29;20648;-79
2022/01/20 05:32:50;;;;;;;10.18;1.15;;;4.50;99.90;;;;;;4851398;29;20064;-79
2022/01/20 05:35:22;;;;;;;14.55;1.33;;;4.40;99.90;;;;;;4849143;29;20041;-79
2022/01/20 05:37:50;;;;;;;13.77;0.90;;;4.40;99.90;;;;;;4851321;29;20050;-79
2022/01/20 05:40:25;;;;;;;15.85;2.45;;;4.40;99.90;;;;;;4834834;29;20053;-80
2022/01/20 05:42:56;;;;;;;15.57;1.52;;;4.40;99.90;;;;;;4835516;29;20060;-80
2022/01/20 05:45:23;;;;;;;22.23;1.57;;;4.40;99.90;;;;;;4838244;29;20034;-79
2022/01/20 05:48:01;;;;;;;25.67;2.08;;;4.40;99.90;;;;;;4833661;29;20053;-79
2022/01/20 05:50:56;;;;;;;18.90;1.75;;;4.40;99.90;;;;;;4842025;29;20044;-79
2022/01/20 05:53:26;;;;;;;15.30;1.52;;;4.40;99.90;;;;;;4848262;29;20723;-79
2022/01/20 05:55:55;;;;;;;14.75;2.25;;;4.40;99.90;;;;;;4847893;29;20041;-80
2022/01/20 05:58:22;;;;;;;16.67;1.50;;;4.40;99.90;;;;;;4828302;29;20034;-80
2022/01/20 06:00:52;;;;;;;21.00;2.28;;;4.40;99.90;;;;;;4851778;29;20046;-80
2022/01/20 06:03:38;;;;;;;24.38;2.90;;;4.40;99.90;;;;;;4843591;29;20140;-79
2022/01/20 06:06:13;;;;;;;13.73;1.75;;;4.30;99.90;;;;;;4822106;29;20049;-80
2022/01/20 06:08:42;;;;;;;15.45;1.98;;;4.30;99.90;;;;;;4846634;29;20036;-80
2022/01/20 06:11:09;;;;;;;16.73;1.38;;;4.30;99.90;;;;;;4846235;29;20046;-80
2022/01/20 06:13:36;;;;;;;20.55;1.95;;;4.30;99.90;;;;;;4851109;29;20054;-80
2022/01/20 06:16:03;;;;;;;21.00;2.47;;;4.30;99.90;;;;;;4815392;29;20042;-80
2022/01/20 06:18:32;;;;;;;20.43;1.70;;;4.30;99.90;;;;;;4828375;29;20046;-79
2022/01/20 06:20:59;;;;;;;23.02;2.58;;;4.30;99.90;;;;;;4847587;29;21017;-79
2022/01/20 06:23:27;;;;;;;16.50;1.80;;;4.30;99.90;;;;;;4832380;29;20132;-79
2022/01/20 06:25:56;;;;;;;18.55;2.70;;;4.20;99.90;;;;;;4847479;29;20151;-79
2022/01/20 06:28:22;;;;;;;18.70;1.60;;;4.20;99.90;;;;;;4832220;29;20529;-79
2022/01/20 06:30:52;;;;;;;20.67;1.90;;;4.20;99.90;;;;;;4853587;29;20041;-86
2022/01/20 06:33:29;;;;;;;22.10;2.33;;;4.10;99.90;;;;;;4835423;29;20030;-84
2022/01/20 06:35:59;;;;;;;21.00;2.85;;;4.10;99.90;;;;;;4833807;29;20084;-80
2022/01/20 06:38:26;;;;;;;18.02;2.83;;;4.10;99.90;;;;;;4847215;29;20379;-80
2022/01/20 06:40:55;;;;;;;22.33;3.25;;;4.10;99.90;;;;;;4830870;29;20041;-79
2022/01/20 06:43:22;;;;;;;13.40;2.70;;;4.10;99.90;;;;;;4831804;29;20049;-78
2022/01/20 06:45:49;;;;;;;18.65;2.70;;;4.10;99.90;;;;;;4833342;29;20049;-79
2022/01/20 06:48:23;;;;;;;17.25;2.40;;;4.00;99.90;;;;;;4846784;29;20466;-79
2022/01/20 06:51:12;;;;;;;19.50;3.50;;;4.00;99.90;;;;;;4837282;29;20042;-79
2022/01/20 06:53:39;;;;;;;14.50;2.40;;;4.00;99.90;;;;;;4826037;29;20498;-78
2022/01/20 06:56:05;;;;;;;26.33;6.70;;;4.00;99.90;;;;;;4840977;29;20390;-79
2022/01/20 06:58:33;;;;;;;20.13;4.97;;;4.00;99.90;;;;;;4844032;29;20510;-79
2022/01/20 07:01:02;;;;;;;18.77;1.95;;;4.00;99.90;;;;;;4843709;29;20046;-81
2022/01/20 07:03:28;;;;;;;21.67;2.35;;;4.00;99.90;;;;;;4846124;29;20508;-80
2022/01/20 07:05:55;;;;;;;9.43;1.08;;;3.80;99.90;;;;;;4828269;29;20041;-80
2022/01/20 07:08:23;;;;;;;7.87;0.80;;;3.60;99.90;;;;;;4817875;29;20041;-80
2022/01/20 07:10:50;;;;;;;10.27;1.08;;;3.40;99.90;;;;;;4839024;29;20049;-80
2022/01/20 07:13:16;;;;;;;8.55;0.90;;;3.30;99.90;;;;;;4825325;29;20038;-80
2022/01/20 07:15:43;;;;;;;10.87;1.10;;;3.20;99.90;;;;;;4841739;29;20052;-80
2022/01/20 07:18:09;;;;;;;10.02;0.90;;;3.20;99.90;;;;;;4824463;29;20035;-80
2022/01/20 07:20:41;;;;;;;10.13;1.10;;;3.10;99.90;;;;;;4831560;29;20042;-80
2022/01/20 07:23:17;;;;;;;9.43;1.43;;;3.10;99.90;;;;;;4816161;29;20490;-80
2022/01/20 07:26:06;;;;;;;5.10;0.80;;;3.00;99.90;;;;;;4856700;29;20398;-81
2022/01/20 07:28:48;;;;;;;9.30;1.00;;;2.90;99.90;;;;;;4841179;29;20038;-81
2022/01/20 07:31:20;;;;;;;12.07;0.90;;;2.80;99.90;;;;;;4839802;29;20370;-82
2022/01/20 07:34:06;;;;;;;8.20;0.77;;;2.80;99.90;;;;;;4846626;29;20115;-81
2022/01/20 07:37:05;;;;;;;6.73;0.63;;;2.70;99.90;;;;;;4850674;29;20287;-81
2022/01/20 07:39:41;;;;;;;7.70;0.83;;;2.60;99.90;;;;;;4839218;29;20045;-82
2022/01/20 07:42:34;;;;;;;5.47;0.68;;;2.50;99.90;;;;;;4840224;29;20073;-81
2022/01/20 07:45:56;;;;;;;4.93;0.90;;;2.50;99.90;;;;;;4843891;29;20489;-81
2022/01/20 07:48:50;;;;;;;4.93;0.50;;;2.40;99.90;;;;;;4835138;29;20050;-82
2022/01/20 07:51:19;;;;;;;5.53;0.87;;;2.40;99.90;;;;;;4838145;29;20478;-82
2022/01/20 07:53:49;;;;;;;6.50;0.57;;;2.40;99.90;;;;;;4839579;29;20049;-82
2022/01/20 07:56:34;;;;;;;4.60;0.80;;;2.50;99.90;;;;;;4825873;29;20073;-85
2022/01/20 07:59:06;;;;;;;11.00;0.73;;;2.50;99.90;;;;;;4790624;29;20069;-80
2022/01/20 08:02:16;;;;;;;6.67;0.90;;;2.50;99.90;;;;;;4829566;29;20046;-81
2022/01/20 08:04:49;;;;;;;8.57;1.37;;;2.60;99.90;;;;;;4828071;29;20033;-81
2022/01/20 08:07:49;;;;;;;12.23;1.52;;;2.70;99.90;;;;;;4843227;29;20050;-82
2022/01/20 08:10:21;;;;;;;;;;;2.80;99.90;;;;;;4822558;29;20058;-81
2022/01/20 08:12:59;;;;;;;11.20;1.60;;;2.90;99.90;;;;;;4841481;29;19920;-79
2022/01/20 08:15:34;;;;;;;12.73;1.70;;;2.90;99.90;;;;;;4838819;29;20046;-80
2022/01/20 08:18:11;;;;;;;12.00;1.17;;;3.00;99.90;;;;;;4842265;29;20041;-80
2022/01/20 08:20:52;;;;;;;9.40;1.10;;;3.00;99.90;;;;;;4826437;29;20042;-79
2022/01/20 08:23:24;;;;;;;8.60;0.77;;;3.10;99.90;;;;;;4837271;29;20050;-80
2022/01/20 08:25:58;;;;;;;7.50;1.03;;;3.10;99.90;;;;;;4839484;29;20033;-81
2022/01/20 08:28:35;;;;;;;6.87;0.90;;;3.20;99.90;;;;;;4846920;29;20447;-80
2022/01/20 08:31:20;;;;;;;8.98;1.40;;;3.20;99.90;;;;;;4844822;29;21209;-80
2022/01/20 08:37:04;;;;;;;9.00;0.73;;;3.10;99.90;;;;;;4842777;29;20041;-80
2022/01/20 08:39:53;;;;;;;7.63;0.80;;;3.00;99.90;;;;;;4835328;29;20048;-81
2022/01/20 08:42:27;;;;;;;6.30;0.70;;;3.00;99.90;;;;;;4841650;29;20049;-80
2022/01/20 08:44:59;;;;;;;8.10;0.60;;;3.00;99.90;;;;;;4844026;29;20057;-81
2022/01/20 08:47:37;;;;;;;8.73;0.90;;;3.10;99.90;;;;;;4831269;29;20053;-80
2022/01/20 08:50:14;;;;;;;8.30;0.57;;;3.10;99.90;;;;;;4827811;29;20038;-80
2022/01/20 08:52:40;;;;;;;9.43;0.87;;;3.10;99.90;;;;;;4826871;29;20037;-80
2022/01/20 08:55:12;;;;;;;9.55;0.70;;;3.10;99.90;;;;;;4823274;29;20053;-80
2022/01/20 08:57:55;;;;;;;9.23;1.20;;;3.20;99.90;;;;;;4840763;29;20043;-81
2022/01/20 09:01:05;;;;;;;3.97;0.60;;;3.30;99.90;;;;;;4840932;29;20056;-80
2022/01/20 09:03:38;;;;;;;5.78;0.70;;;3.60;99.90;;;;;;4839638;29;20030;-86
2022/01/20 09:06:08;;;;;;;11.73;1.60;;;3.80;99.90;;;;;;4823816;29;20037;-80
2022/01/20 09:09:11;;;;;;;6.55;0.80;;;3.80;99.90;;;;;;4840061;29;20049;-82
2022/01/20 09:11:51;;;;;;;13.60;2.10;;;3.90;99.90;;;;;;4837708;29;20065;-78
2022/01/20 09:17:27;;;;;;;16.67;2.00;;;3.70;99.90;;;;;;4838787;29;20046;-81
2022/01/20 09:20:05;;;;;;;9.10;1.23;;;3.70;99.90;;;;;;4832884;29;20057;-78
2022/01/20 09:22:36;;;;;;;19.20;2.30;;;3.60;99.90;;;;;;4852698;29;20299;-78
2022/01/20 09:25:04;;;;;;;10.50;2.10;;;3.60;99.90;;;;;;4829157;29;20049;-78
2022/01/20 09:27:42;;;;;;;18.67;3.50;;;3.60;99.90;;;;;;4838238;29;20061;-78
2022/01/20 09:30:18;;;;;;;14.67;1.53;;;3.60;99.90;;;;;;4827658;29;20080;-79
2022/01/20 09:33:11;;;;;;;11.43;1.15;;;3.70;99.90;;;;;;4840063;29;20034;-80
2022/01/20 09:35:43;;;;;;;10.43;1.15;;;3.70;99.90;;;;;;4812235;29;20057;-80
2022/01/20 09:38:16;;;;;;;11.32;1.33;;;3.70;99.90;;;;;;4829017;29;20045;-81
2022/01/20 09:40:50;;;;;;;15.18;1.88;;;3.70;99.90;;;;;;4821758;29;20034;-81
2022/01/20 09:43:23;;;;;;;12.40;1.33;;;3.80;99.90;;;;;;4836862;29;20037;-80
2022/01/20 09:45:55;;;;;;;15.93;1.80;;;3.70;99.90;;;;;;4837751;29;20375;-80
2022/01/20 09:48:26;;;;;;;15.07;1.43;;;3.70;99.90;;;;;;4824965;29;20112;-79
2022/01/20 09:51:03;;;;;;;10.52;1.10;;;3.70;99.90;;;;;;4841873;29;20509;-79
2022/01/20 09:53:56;;;;;;;12.90;1.60;;;3.70;99.90;;;;;;4837219;29;20046;-79
2022/01/20 09:56:45;;;;;;;10.70;1.20;;;3.70;99.90;;;;;;4849808;29;20384;-79
2022/01/20 09:59:18;;;;;;;9.05;1.60;;;3.60;99.90;;;;;;4835163;29;20034;-79
2022/01/20 10:01:48;;;;;;;16.47;1.80;;;3.50;99.90;;;;;;4841938;29;20040;-79
2022/01/20 10:04:39;;;;;;;15.10;1.43;;;3.60;99.90;;;;;;4828754;29;20046;-79
2022/01/20 10:07:20;;;;;;;9.63;1.73;;;3.70;99.90;;;;;;4820682;29;20046;-80
2022/01/20 10:10:03;;;;;;;11.95;1.52;;;4.00;99.90;;;;;;4823823;29;20038;-79
2022/01/20 10:12:51;;;;;;;10.15;1.38;;;4.20;99.90;;;;;;4825146;29;20052;-80
2022/01/20 10:16:09;;;;;;;12.88;1.33;;;4.40;99.90;;;;;;4841674;29;20475;-80
2022/01/20 10:21:55;;;;;;;13.82;2.03;;;5.00;99.90;;;;;;4846191;29;20529;-80
2022/01/20 10:24:28;;;;;;;14.02;1.85;;;5.30;99.90;;;;;;4842584;29;20042;-80
2022/01/20 10:27:17;;;;;;;13.87;2.13;;;5.70;99.90;;;;;;4838179;29;20046;-80
2022/01/20 10:30:01;;;;;;;10.88;1.08;;;6.00;99.90;;;;;;4841893;29;20297;-79
2022/01/20 10:32:49;;;;;;;11.10;2.47;;;6.00;99.90;;;;;;4841400;29;20168;-79
2022/01/20 10:35:25;;;;;;;15.73;2.00;;;6.00;99.90;;;;;;4812831;29;20069;-80
2022/01/20 10:38:09;;;;;;;13.10;1.98;;;5.90;99.90;;;;;;4826171;29;20483;-80
2022/01/20 10:40:52;;;;;;;12.70;1.88;;;5.80;99.90;;;;;;4828400;29;20463;-80
2022/01/20 10:43:34;;;;;;;10.27;1.50;;;5.60;99.90;;;;;;4825686;29;20038;-80
2022/01/20 10:46:23;;;;;;;26.25;7.03;;;5.50;99.90;;;;;;4858041;29;20046;-80
2022/01/20 10:48:59;;;;;;;18.05;4.50;;;5.50;99.90;;;;;;4835472;29;20049;-82
2022/01/20 10:51:57;;;;;;;18.38;2.83;;;5.40;99.90;;;;;;4839816;29;20053;-81
2022/01/20 10:54:33;;;;;;;15.02;1.80;;;5.20;99.90;;;;;;4827041;29;20057;-80
2022/01/20 10:56:59;;;;;;;18.27;1.95;;;5.30;99.90;;;;;;4824089;29;20057;-82
2022/01/20 10:59:26;;;;;;;16.13;2.20;;;5.60;99.90;;;;;;4846674;29;20042;-82
2022/01/20 11:02:09;;;;;;;19.10;2.35;;;5.70;99.90;;;;;;4825012;29;20387;-81
2022/01/20 11:04:39;;;;;;;17.00;2.50;;;5.70;99.90;;;;;;4828894;29;20253;-81
2022/01/20 11:07:09;;;;;;;16.65;2.40;;;5.60;99.90;;;;;;4824556;29;20038;-81
2022/01/20 11:09:42;;;;;;;17.10;2.08;;;5.50;99.90;;;;;;4839008;29;20042;-80
2022/01/20 11:12:47;;;;;;;10.65;1.48;;;5.60;99.90;;;;;;4833296;29;20054;-81
2022/01/20 11:15:28;;;;;;;11.27;1.48;;;5.80;99.90;;;;;;4826360;29;20506;-81
2022/01/20 11:17:56;;;;;;;15.83;2.10;;;5.90;99.90;;;;;;4824037;29;20034;-81
2022/01/20 11:20:38;;;;;;;16.40;2.10;;;5.90;99.90;;;;;;4827164;29;20311;-81
2022/01/20 11:23:07;;;;;;;15.85;2.65;;;5.80;99.90;;;;;;4816787;29;20038;-82
2022/01/20 11:25:41;;;;;;;13.05;1.48;;;5.70;99.90;;;;;;4836016;29;20054;-82
2022/01/20 11:28:30;;;;;;;;;;;5.60;99.90;;;;;;4807302;29;20042;-81
2022/01/20 11:31:13;;;;;;;17.83;1.60;;;5.40;99.90;;;;;;4824476;29;19916;-82
2022/01/20 11:34:19;;;;;;;13.43;1.02;;;5.30;99.90;;;;;;4843988;29;20497;-81
2022/01/20 11:36:47;;;;;;;12.65;1.30;;;5.30;99.90;;;;;;4835648;29;20040;-81
2022/01/20 11:39:20;;;;;;;15.23;1.73;;;5.20;99.90;;;;;;4855703;29;20037;-81
2022/01/20 11:41:49;;;;;;;;;;;5.20;99.90;;;;;;4843826;29;20414;-80
2022/01/20 11:44:26;;;;;;;9.50;1.17;;;5.40;99.90;;;;;;4850749;29;19923;-79
2022/01/20 11:47:03;;;;;;;11.50;1.55;;;5.60;99.90;;;;;;4827987;29;20049;-79
2022/01/20 11:49:35;;;;;;;10.93;1.38;;;5.70;99.90;;;;;;4839443;29;20499;-80
2022/01/20 11:52:02;;;;;;;13.55;1.15;;;5.70;99.90;;;;;;4829571;29;20037;-80
2022/01/20 11:54:35;;;;;;;14.43;1.33;;;5.60;99.90;;;;;;4823433;29;20049;-79
2022/01/20 11:57:07;;;;;;;13.85;1.90;;;5.50;99.90;;;;;;4844083;29;20038;-78
2022/01/20 11:59:56;;;;;;;8.43;0.63;;;5.20;99.90;;;;;;4844938;29;20049;-78
2022/01/20 12:02:29;;;;;;;4.13;0.60;;;4.60;99.90;;;;;;4842684;29;20368;-80
2022/01/20 12:04:59;;;;;;;7.32;0.60;;;4.10;99.90;;;;;;4837640;29;20053;-80
2022/01/20 12:08:18;;;;;;;7.55;0.80;;;3.70;99.90;;;;;;4825748;29;20039;-78
2022/01/20 12:11:12;;;;;;;5.28;0.43;;;3.40;99.90;;;;;;4829302;29;20057;-76
2022/01/20 12:13:48;;;;;;;8.70;0.85;;;3.30;99.90;;;;;;4844442;29;20050;-76
2022/01/20 12:16:23;;;;;;;5.23;0.43;;;3.20;99.90;;;;;;4842487;29;20033;-77
2022/01/20 12:19:00;;;;;;;6.37;0.70;;;3.20;99.90;;;;;;4840719;29;20046;-78
2022/01/20 12:21:30;;;;;;;6.45;0.40;;;3.10;99.90;;;;;;4820099;29;20058;-76
2022/01/20 12:23:59;;;;;;;3.92;0.47;;;3.20;99.90;;;;;;4837101;29;20038;-75
2022/01/20 12:26:38;;;;;;;13.27;1.37;;;3.20;99.90;;;;;;4842516;29;20049;-76
2022/01/20 12:29:07;;;;;;;9.23;2.00;;;3.30;99.90;;;;;;4852335;29;20041;-76
2022/01/20 12:31:49;;;;;;;7.90;1.05;;;3.30;99.90;;;;;;4845222;29;20046;-76
2022/01/20 12:34:16;;;;;;;10.98;1.83;;;3.40;99.90;;;;;;4851300;29;20293;-76
2022/01/20 12:36:54;;;;;;;10.17;1.47;;;3.40;99.90;;;;;;4845897;29;20042;-76
2022/01/20 12:39:23;;;;;;;10.75;1.38;;;3.50;99.90;;;;;;4831489;29;20370;-78
2022/01/20 12:42:11;;;;;;;7.35;0.90;;;3.50;99.90;;;;;;4833969;29;20038;-79
2022/01/20 12:45:01;;;;;;;8.43;0.80;;;3.70;99.90;;;;;;4834262;29;20066;-79
2022/01/20 12:47:30;;;;;;;6.43;0.80;;;4.00;99.90;;;;;;4835708;29;20046;-79
2022/01/20 12:49:57;;;;;;;15.40;1.48;;;4.20;99.90;;;;;;4846970;29;20049;-79
2022/01/20 12:52:24;;;;;;;16.65;2.05;;;4.40;99.90;;;;;;4847535;29;20045;-83
2022/01/20 12:54:51;;;;;;;13.73;0.88;;;4.50;99.90;;;;;;4835317;29;20483;-84
2022/01/20 12:57:18;;;;;;;11.98;1.70;;;4.50;99.90;;;;;;4846937;29;20042;-84
2022/01/20 12:59:46;;;;;;;11.53;1.13;;;4.50;99.90;;;;;;4845556;29;20471;-84
2022/01/20 13:02:23;;;;;;;13.15;1.88;;;4.50;99.90;;;;;;4837036;29;20033;-84
2022/01/20 13:05:00;;;;;;;14.32;1.40;;;4.50;99.90;;;;;;4837525;29;20042;-84
2022/01/20 13:07:28;;;;;;;10.10;1.40;;;4.50;99.90;;;;;;4850525;29;20048;-85
2022/01/20 13:10:05;;;;;;;8.15;1.00;;;4.60;99.90;;;;;;4845636;29;20046;-85
2022/01/20 13:12:39;;;;;;;12.60;1.05;;;4.60;99.90;;;;;;4822429;29;20068;-85
2022/01/20 13:15:06;;;;;;;14.65;1.08;;;4.60;99.90;;;;;;4814336;29;20048;-84
2022/01/20 13:17:34;;;;;;;10.40;1.47;;;4.60;99.90;;;;;;4832115;29;20041;-84
2022/01/20 13:20:19;;;;;;;11.50;2.03;;;4.50;99.90;;;;;;4831212;29;20041;-85
2022/01/20 13:22:56;;;;;;;18.85;1.35;;;4.50;99.90;;;;;;4832897;29;20564;-85
2022/01/20 13:25:28;;;;;;;16.92;1.60;;;4.40;99.90;;;;;;4838947;29;20389;-83
2022/01/20 13:27:59;;;;;;;17.55;1.45;;;4.40;99.90;;;;;;4853416;29;20037;-84
2022/01/20 13:30:47;;;;;;;14.00;1.42;;;4.30;99.90;;;;;;4848770;29;20042;-83
2022/01/20 13:33:25;;;;;;;13.75;1.63;;;4.40;99.90;;;;;;4844745;29;20061;-82
2022/01/20 13:36:02;;;;;;;18.20;1.75;;;4.40;99.90;;;;;;4838324;29;20394;-84
2022/01/20 13:38:47;;;;;;;9.60;1.30;;;4.50;99.90;;;;;;4818826;29;20375;-85
2022/01/20 13:41:22;;;;;;;11.27;1.23;;;4.50;99.90;;;;;;4849517;29;20030;-84
2022/01/20 13:47:09;;;;;;;14.45;1.52;;;4.60;99.90;;;;;;4845361;29;20049;-85
2022/01/20 13:49:57;;;;;;;8.18;0.80;;;4.60;99.90;;;;;;4848087;29;20494;-85
2022/01/20 13:52:24;;;;;;;13.20;1.20;;;4.60;99.90;;;;;;4835092;29;20061;-86
2022/01/20 13:54:54;;;;;;;9.98;1.42;;;4.50;99.90;;;;;;4835372;29;20050;-88
2022/01/20 13:57:34;;;;;;;19.67;3.25;;;4.50;99.90;;;;;;4835442;29;20037;-83
2022/01/20 14:00:10;;;;;;;17.13;3.25;;;4.40;99.90;;;;;;4833535;29;20053;-83
2022/01/20 14:02:52;;;;;;;16.98;3.92;;;4.40;99.90;;;;;;4854346;29;20057;-82
2022/01/20 14:05:38;;;;;;;16.88;4.28;;;4.40;99.90;;;;;;4855162;29;20125;-83
2022/01/20 14:08:11;;;;;;;14.02;2.30;;;4.50;99.90;;;;;;4838749;29;20044;-84
2022/01/20 14:10:41;;;;;;;14.55;1.65;;;4.50;99.90;;;;;;4842235;29;20050;-86
2022/01/20 14:13:15;;;;;;;14.38;1.13;;;4.50;99.90;;;;;;4840032;29;20046;-83
2022/01/20 14:15:51;;;;;;;11.57;1.50;;;4.50;99.90;;;;;;4853602;29;20037;-84
2022/01/20 14:18:31;;;;;;;12.40;1.58;;;4.60;99.90;;;;;;4841425;29;20045;-84
2022/01/20 14:21:00;;;;;;;7.95;1.05;;;4.50;99.90;;;;;;4851864;29;20054;-84
2022/01/20 14:23:29;;;;;;;10.77;1.58;;;4.50;99.90;;;;;;4837124;29;20173;-84
2022/01/20 14:26:01;;;;;;;17.55;2.10;;;4.50;99.90;;;;;;4834281;29;20045;-84
2022/01/20 14:28:50;;;;;;;8.65;1.17;;;4.50;99.90;;;;;;4853434;29;20049;-84
2022/01/20 14:31:21;;;;;;;9.23;1.35;;;4.40;99.90;;;;;;4853779;29;20049;-84
2022/01/20 14:33:54;;;;;;;11.55;1.02;;;4.40;99.90;;;;;;4854959;29;20061;-84
2022/01/20 14:36:21;;;;;;;9.50;1.25;;;4.40;99.90;;;;;;4853288;29;20034;-84
2022/01/20 14:38:47;;;;;;;12.57;1.65;;;4.30;99.90;;;;;;4851295;29;20037;-84
2022/01/20 14:41:15;;;;;;;12.82;1.33;;;4.30;99.90;;;;;;4835786;29;20050;-84
2022/01/20 14:43:46;;;;;;;13.93;1.38;;;4.20;99.90;;;;;;4836108;29;20041;-84
2022/01/20 14:46:18;;;;;;;21.70;2.53;;;4.20;99.90;;;;;;4838440;29;20402;-83
2022/01/20 14:48:48;;;;;;;11.10;1.50;;;4.20;99.90;;;;;;4851802;29;20046;-83
2022/01/20 14:51:14;;;;;;;14.93;1.10;;;4.30;99.90;;;;;;4853264;29;20064;-84
2022/01/20 14:53:42;;;;;;;16.25;1.83;;;4.30;99.90;;;;;;4851226;29;20050;-84
2022/01/20 14:56:19;;;;;;;9.02;1.20;;;4.30;99.90;;;;;;4839488;29;20038;-84